TimeCST,TemperatureF,Dew PointF,Humidity,Sea Level PressureIn,VisibilityMPH,Wind Direction,Wind SpeedMPH,Gust SpeedMPH,PrecipitationIn,Events,Conditions,WindDirDegrees,DateUTC
12:15 AM,33.8,32.0,93,30.46,5.0,Calm,Calm,-,N/A,,Clear,0,2012-11-17 06:15:00
12:35 AM,32.0,32.0,100,30.46,5.0,Calm,Calm,-,N/A,,Clear,0,2012-11-17 06:35:00
12:55 AM,32.0,30.2,93,30.46,5.0,Calm,Calm,-,N/A,,Clear,0,2012-11-17 06:55:00
1:15 AM,32.0,32.0,100,30.46,4.0,Calm,Calm,-,N/A,,Clear,0,2012-11-17 07:15:00
1:35 AM,32.0,32.0,100,30.47,2.5,Calm,Calm,-,N/A,,Clear,0,2012-11-17 07:35:00
1:55 AM,32.0,32.0,100,30.47,5.0,Calm,Calm,-,N/A,,Clear,0,2012-11-17 07:55:00
2:15 AM,32.0,30.2,93,30.47,5.0,Calm,Calm,-,N/A,,Clear,0,2012-11-17 08:15:00
2:35 AM,32.0,30.2,93,30.47,5.0,Calm,Calm,-,N/A,,Clear,0,2012-11-17 08:35:00
2:55 AM,32.0,32.0,100,30.47,7.0,Calm,Calm,-,N/A,,Clear,0,2012-11-17 08:55:00
3:15 AM,32.0,32.0,100,30.47,5.0,Calm,Calm,-,N/A,,Clear,0,2012-11-17 09:15:00
3:35 AM,32.0,30.2,93,30.47,5.0,Calm,Calm,-,N/A,,Clear,0,2012-11-17 09:35:00
3:55 AM,30.2,30.2,100,30.47,4.0,Calm,Calm,-,N/A,,Clear,0,2012-11-17 09:55:00
4:15 AM,30.2,30.2,100,30.48,4.0,Calm,Calm,-,N/A,,Clear,0,2012-11-17 10:15:00
4:35 AM,30.2,28.4,93,30.48,4.0,Calm,Calm,-,N/A,,Clear,0,2012-11-17 10:35:00
4:55 AM,30.2,30.2,100,30.48,3.0,Calm,Calm,-,N/A,,Clear,0,2012-11-17 10:55:00
5:15 AM,30.2,28.4,93,30.49,3.0,Calm,Calm,-,N/A,,Clear,0,2012-11-17 11:15:00
5:35 AM,30.2,30.2,100,30.49,2.5,Calm,Calm,-,N/A,,Clear,0,2012-11-17 11:35:00
6:54 AM,28.4,28.4,100,30.50,5.0,Calm,Calm,-,N/A,,Clear,0,2012-11-17 12:54:00
7:53 AM,33.8,33.8,100,30.52,5.0,Calm,Calm,-,N/A,,Clear,0,2012-11-17 13:53:00
8:54 AM,39.2,35.6,87,30.52,6.0,Calm,Calm,-,N/A,,Clear,0,2012-11-17 14:54:00
9:54 AM,44.6,35.6,71,30.53,7.0,Calm,Calm,-,N/A,,Clear,0,2012-11-17 15:54:00
10:52 AM,50.0,35.6,58,30.52,10.0,Calm,Calm,-,N/A,,Clear,0,2012-11-17 16:52:00
11:54 AM,53.6,35.6,51,30.48,12.0,East,5.8,-,N/A,,Partly Cloudy,90,2012-11-17 17:54:00
12:55 PM,57.2,28.4,33,30.45,15.0,East,5.8,-,N/A,,Clear,100,2012-11-17 18:55:00
1:58 PM,59.0,28.4,31,30.43,15.0,ESE,5.8,-,N/A,,Clear,110,2012-11-17 19:58:00
3:57 PM,57.2,28.4,33,30.43,15.0,East,5.8,-,N/A,,Clear,80,2012-11-17 21:57:00
4:50 PM,50.0,32.0,50,30.42,15.0,NNE,5.8,-,N/A,,Scattered Clouds,30,2012-11-17 22:50:00
5:50 PM,50.0,32.0,50,30.42,15.0,ENE,5.8,-,N/A,,Scattered Clouds,70,2012-11-17 23:50:00
6:55 PM,42.8,32.0,66,30.42,10.0,Calm,Calm,-,N/A,,Clear,0,2012-11-18 00:55:00
7:15 PM,41.0,32.0,70,30.42,10.0,Calm,Calm,-,N/A,,Clear,0,2012-11-18 01:15:00
7:35 PM,41.0,32.0,70,30.42,10.0,Calm,Calm,-,N/A,,Clear,0,2012-11-18 01:35:00
7:55 PM,37.4,32.0,81,30.42,10.0,Calm,Calm,-,N/A,,Clear,0,2012-11-18 01:55:00
8:15 PM,37.4,33.8,87,30.43,10.0,Calm,Calm,-,N/A,,Clear,0,2012-11-18 02:15:00
8:35 PM,35.6,32.0,87,30.43,10.0,Calm,Calm,-,N/A,,Clear,0,2012-11-18 02:35:00
8:55 PM,37.4,32.0,81,30.43,10.0,Calm,Calm,-,N/A,,Clear,0,2012-11-18 02:55:00
9:15 PM,35.6,32.0,87,30.43,10.0,East,3.5,-,N/A,,Clear,80,2012-11-18 03:15:00
9:35 PM,39.2,33.8,81,30.43,10.0,Calm,Calm,-,N/A,,Clear,0,2012-11-18 03:35:00
9:55 PM,37.4,32.0,81,30.43,10.0,Calm,Calm,-,N/A,,Clear,0,2012-11-18 03:55:00
10:15 PM,37.4,32.0,81,30.43,7.0,East,3.5,-,N/A,,Clear,100,2012-11-18 04:15:00
10:35 PM,39.2,32.0,75,30.43,10.0,West,4.6,-,N/A,,Clear,260,2012-11-18 04:35:00
10:55 PM,35.6,32.0,87,30.43,10.0,Calm,Calm,-,N/A,,Clear,0,2012-11-18 04:55:00
11:15 PM,33.8,32.0,93,30.43,10.0,Calm,Calm,-,N/A,,Clear,0,2012-11-18 05:15:00
11:35 PM,33.8,32.0,93,30.43,10.0,Calm,Calm,-,N/A,,Clear,0,2012-11-18 05:35:00
11:55 PM,35.6,33.8,93,30.43,10.0,Calm,Calm,-,N/A,,Clear,0,2012-11-18 05:55:00